Time;durP1;ratioP1;P1;durP2;ratioP2;P2;SDS_P1;SDS_P2;PMS_P1;PMS_P2;Temp;Humidity;BMP_temperature;BMP_pressure;BME280_temperature;BME280_humidity;BME280_pressure;Samples;Min_cycle;Max_cycle;Signal;HPM_P1;HPM_P2
2023/09/10 00:04:32;;;;;;;27.55;17.77;;;;;;;;;;10443201;28;20040;-84
2023/09/10 00:09:33;;;;;;;29.55;18.85;;;;;;;;;;10441435;28;20074;-84
2023/09/10 00:14:34;;;;;;;29.73;17.63;;;;;;;;;;10441428;28;20098;-85
2023/09/10 00:19:35;;;;;;;26.33;17.27;;;;;;;;;;10444009;28;20043;-84
2023/09/10 00:24:36;;;;;;;23.73;15.82;;;;;;;;;;10443510;28;20060;-84
2023/09/10 00:29:37;;;;;;;31.40;17.60;;;;;;;;;;10443297;28;20420;-84
2023/09/10 00:34:38;;;;;;;24.38;15.90;;;;;;;;;;10442541;28;20033;-84
2023/09/10 00:39:39;;;;;;;26.17;16.98;;;;;;;;;;10442725;28;20111;-86
2023/09/10 00:44:41;;;;;;;23.95;15.77;;;;;;;;;;10442839;28;20037;-86
2023/09/10 00:49:44;;;;;;;19.85;13.30;;;;;;;;;;10443189;28;20111;-86
2023/09/10 00:54:45;;;;;;;23.60;17.13;;;;;;;;;;10440492;28;20037;-84
2023/09/10 00:59:46;;;;;;;27.60;16.83;;;;;;;;;;10437095;28;20052;-86
2023/09/10 01:04:47;;;;;;;24.50;16.42;;;;;;;;;;10441792;28;20065;-85
2023/09/10 01:09:48;;;;;;;21.30;14.90;;;;;;;;;;10443398;28;20114;-86
2023/09/10 01:14:54;;;;;;;23.35;14.00;;;;;;;;;;10443016;28;20027;-86
2023/09/10 01:19:55;;;;;;;24.33;16.33;;;;;;;;;;10443022;28;20029;-84
2023/09/10 01:24:56;;;;;;;24.55;16.27;;;;;;;;;;10441189;28;20794;-84
2023/09/10 01:29:57;;;;;;;24.10;16.67;;;;;;;;;;10442790;28;20040;-84
2023/09/10 01:35:11;;;;;;;24.90;17.20;;;;;;;;;;10449216;28;20491;-84
2023/09/10 01:40:16;;;;;;;23.98;15.55;;;;;;;;;;10447733;28;20045;-85
2023/09/10 01:45:18;;;;;;;20.73;14.33;;;;;;;;;;10447070;28;20045;-83
2023/09/10 01:50:19;;;;;;;19.73;14.70;;;;;;;;;;10448953;28;20040;-83
2023/09/10 01:55:20;;;;;;;20.55;14.25;;;;;;;;;;10448357;28;20410;-83
2023/09/10 02:00:22;;;;;;;20.58;14.30;;;;;;;;;;10449398;28;20025;-84
2023/09/10 02:05:23;;;;;;;17.63;12.02;;;;;;;;;;10448388;28;20476;-85
2023/09/10 02:10:24;;;;;;;17.90;12.70;;;;;;;;;;10447671;28;20072;-85
2023/09/10 02:15:26;;;;;;;20.90;13.90;;;;;;;;;;10447145;28;20040;-86
2023/09/10 02:20:27;;;;;;;20.15;13.02;;;;;;;;;;10446959;28;20032;-84
2023/09/10 02:25:28;;;;;;;30.38;17.15;;;;;;;;;;10446327;28;20067;-86
2023/09/10 02:30:29;;;;;;;22.13;15.95;;;;;;;;;;10447235;28;20044;-84
2023/09/10 02:35:30;;;;;;;27.25;16.65;;;;;;;;;;10445286;28;20082;-84
2023/09/10 02:40:31;;;;;;;28.45;18.02;;;;;;;;;;10447032;28;20043;-84
2023/09/10 02:45:32;;;;;;;21.95;15.55;;;;;;;;;;10444872;28;20040;-85
2023/09/10 02:50:34;;;;;;;20.38;14.52;;;;;;;;;;10447525;28;20033;-86
2023/09/10 02:55:35;;;;;;;29.58;19.50;;;;;;;;;;10446649;28;20025;-85
2023/09/10 03:00:36;;;;;;;24.20;16.83;;;;;;;;;;10445942;28;20480;-85
2023/09/10 03:05:37;;;;;;;21.98;15.55;;;;;;;;;;10445603;28;20051;-84
2023/09/10 03:10:38;;;;;;;22.75;15.55;;;;;;;;;;10444875;28;20032;-84
2023/09/10 03:15:39;;;;;;;21.60;14.27;;;;;;;;;;10441853;28;20047;-83
2023/09/10 03:20:40;;;;;;;20.23;14.63;;;;;;;;;;10445543;28;20056;-84
2023/09/10 03:25:41;;;;;;;25.75;17.23;;;;;;;;;;10444894;28;20053;-84
2023/09/10 03:30:42;;;;;;;27.05;18.17;;;;;;;;;;10445550;28;20524;-87
2023/09/10 03:35:43;;;;;;;23.65;15.40;;;;;;;;;;10444956;28;20033;-84
2023/09/10 03:40:44;;;;;;;21.80;14.70;;;;;;;;;;10444219;28;20647;-88
2023/09/10 03:45:45;;;;;;;22.38;15.75;;;;;;;;;;10444663;28;20068;-84
2023/09/10 03:50:46;;;;;;;31.05;18.27;;;;;;;;;;10444799;28;20067;-83
2023/09/10 03:55:47;;;;;;;19.27;13.38;;;;;;;;;;10441155;28;20035;-83
2023/09/10 04:00:48;;;;;;;23.58;16.92;;;;;;;;;;10442322;28;20540;-86
2023/09/10 04:05:49;;;;;;;18.83;13.98;;;;;;;;;;10442691;28;20044;-86
2023/09/10 04:10:50;;;;;;;22.83;15.98;;;;;;;;;;10442655;28;20514;-84
2023/09/10 04:15:51;;;;;;;21.77;14.40;;;;;;;;;;10438820;28;20035;-84
2023/09/10 04:20:52;;;;;;;24.33;16.58;;;;;;;;;;10442525;28;20041;-82
2023/09/10 04:25:53;;;;;;;22.92;14.82;;;;;;;;;;10434956;28;20096;-85
2023/09/10 04:30:54;;;;;;;22.77;16.27;;;;;;;;;;10430117;28;20472;-84
2023/09/10 04:35:57;;;;;;;25.08;17.73;;;;;;;;;;10443471;28;20151;-85
2023/09/10 04:40:58;;;;;;;19.67;13.93;;;;;;;;;;10443034;28;20083;-86
2023/09/10 04:45:59;;;;;;;24.27;15.90;;;;;;;;;;10443541;28;20079;-84
2023/09/10 04:51:00;;;;;;;18.45;13.07;;;;;;;;;;10443476;28;20496;-84
2023/09/10 04:56:01;;;;;;;18.42;13.10;;;;;;;;;;10442583;28;20111;-84
2023/09/10 05:01:02;;;;;;;23.65;15.60;;;;;;;;;;10443100;28;20049;-86
2023/09/10 05:06:05;;;;;;;32.40;19.85;;;;;;;;;;10445900;28;20397;-84
2023/09/10 05:11:06;;;;;;;27.65;19.23;;;;;;;;;;10449306;28;20039;-87
2023/09/10 05:16:07;;;;;;;25.27;17.05;;;;;;;;;;10450587;28;20037;-87
2023/09/10 05:21:08;;;;;;;28.80;19.83;;;;;;;;;;10450427;28;20028;-83
2023/09/10 05:26:09;;;;;;;37.45;24.15;;;;;;;;;;10450146;28;20408;-83
2023/09/10 05:31:10;;;;;;;28.65;18.70;;;;;;;;;;10450309;28;20033;-84
2023/09/10 05:36:11;;;;;;;26.38;18.52;;;;;;;;;;10449844;28;20056;-84
2023/09/10 05:41:12;;;;;;;22.58;15.45;;;;;;;;;;10449966;28;20689;-87
2023/09/10 05:46:13;;;;;;;23.65;16.58;;;;;;;;;;10450327;28;20036;-84
2023/09/10 05:51:14;;;;;;;24.45;16.65;;;;;;;;;;10450307;28;20028;-84
2023/09/10 05:56:15;;;;;;;25.25;17.45;;;;;;;;;;10449047;28;20040;-87
2023/09/10 06:01:16;;;;;;;28.20;17.80;;;;;;;;;;10445741;28;20032;-84
2023/09/10 06:06:17;;;;;;;23.75;15.43;;;;;;;;;;10445424;28;20045;-84
2023/09/10 06:11:18;;;;;;;31.02;20.17;;;;;;;;;;10446292;28;20033;-86
2023/09/10 06:16:19;;;;;;;24.23;16.83;;;;;;;;;;10438291;28;20059;-83
2023/09/10 06:21:20;;;;;;;28.08;19.80;;;;;;;;;;10445997;28;20035;-82
2023/09/10 06:26:22;;;;;;;26.98;17.90;;;;;;;;;;10440449;28;20124;-83
2023/09/10 06:31:23;;;;;;;27.27;19.20;;;;;;;;;;10445953;28;20033;-83
2023/09/10 06:36:24;;;;;;;27.27;19.02;;;;;;;;;;10439997;28;20029;-83
2023/09/10 06:41:25;;;;;;;27.27;20.67;;;;;;;;;;10435844;28;20029;-82
2023/09/10 06:46:26;;;;;;;31.80;22.45;;;;;;;;;;10426462;28;20033;-82
2023/09/10 06:51:27;;;;;;;32.97;23.38;;;;;;;;;;10439110;28;20040;-84
2023/09/10 06:56:29;;;;;;;39.05;26.05;;;;;;;;;;10436326;28;20391;-83
2023/09/10 07:01:30;;;;;;;24.40;18.02;;;;;;;;;;10441386;28;20488;-84
2023/09/10 07:06:31;;;;;;;25.83;18.85;;;;;;;;;;10444340;28;20048;-83
2023/09/10 07:11:32;;;;;;;27.52;18.88;;;;;;;;;;10442051;28;20029;-83
2023/09/10 07:16:34;;;;;;;28.90;18.77;;;;;;;;;;10443549;28;20498;-83
2023/09/10 07:21:35;;;;;;;25.10;18.15;;;;;;;;;;10441880;28;20052;-83
2023/09/10 07:26:36;;;;;;;22.88;15.75;;;;;;;;;;10425314;28;20493;-83
2023/09/10 07:31:37;;;;;;;20.75;15.05;;;;;;;;;;10434156;28;20032;-83
2023/09/10 07:36:38;;;;;;;20.65;14.63;;;;;;;;;;10441059;28;20054;-82
2023/09/10 07:41:39;;;;;;;24.50;18.35;;;;;;;;;;10441223;28;20053;-83
2023/09/10 07:46:40;;;;;;;22.15;16.17;;;;;;;;;;10440105;28;20086;-83
2023/09/10 07:51:42;;;;;;;21.00;16.83;;;;;;;;;;10443572;28;20033;-84
2023/09/10 07:56:45;;;;;;;21.15;16.10;;;;;;;;;;10429899;28;20422;-83
2023/09/10 08:01:46;;;;;;;22.98;16.65;;;;;;;;;;10440742;28;20037;-83
2023/09/10 08:06:47;;;;;;;22.50;14.73;;;;;;;;;;10443342;28;20029;-85
2023/09/10 08:11:48;;;;;;;20.83;15.60;;;;;;;;;;10442819;28;20550;-83
2023/09/10 08:16:49;;;;;;;17.88;14.45;;;;;;;;;;10443639;28;20037;-85
2023/09/10 08:21:50;;;;;;;18.40;13.30;;;;;;;;;;10442441;28;20092;-85
2023/09/10 08:26:51;;;;;;;21.13;14.43;;;;;;;;;;10435795;28;20009;-84
2023/09/10 08:31:52;;;;;;;19.02;13.65;;;;;;;;;;10443639;28;20033;-84
2023/09/10 08:36:53;;;;;;;17.90;12.35;;;;;;;;;;10442328;28;20037;-88
2023/09/10 08:42:13;;;;;;;20.70;14.82;;;;;;;;;;10434731;28;20472;-85
2023/09/10 08:47:15;;;;;;;17.15;11.73;;;;;;;;;;10436083;28;20070;-82
2023/09/10 08:52:17;;;;;;;16.08;11.85;;;;;;;;;;10426332;28;20107;-85
2023/09/10 08:57:18;;;;;;;15.30;12.18;;;;;;;;;;10422612;28;20074;-85
2023/09/10 09:02:23;;;;;;;17.92;12.20;;;;;;;;;;10433643;28;20040;-85
2023/09/10 09:07:26;;;;;;;18.00;13.63;;;;;;;;;;10439322;28;20034;-84
2023/09/10 09:12:28;;;;;;;15.57;12.07;;;;;;;;;;10434105;28;20082;-84
2023/09/10 09:23:13;;;;;;;15.45;11.38;;;;;;;;;;10433053;28;20057;-88
2023/09/10 09:28:15;;;;;;;14.27;11.45;;;;;;;;;;10435723;28;20013;-84
2023/09/10 09:33:19;;;;;;;13.32;10.73;;;;;;;;;;10448762;28;20101;-85
2023/09/10 09:38:20;;;;;;;12.23;9.33;;;;;;;;;;10451983;28;20503;-86
2023/09/10 09:43:21;;;;;;;12.43;9.85;;;;;;;;;;10452983;28;20676;-84
2023/09/10 09:48:23;;;;;;;11.77;9.18;;;;;;;;;;10449855;28;20037;-84
2023/09/10 09:53:27;;;;;;;11.82;9.70;;;;;;;;;;10443078;28;20060;-85
2023/09/10 09:58:29;;;;;;;;;;;;;;;;;;10425322;28;20029;-86
2023/09/10 10:03:41;;;;;;;9.63;7.85;;;;;;;;;;10446249;28;19955;-87
2023/09/10 10:08:48;;;;;;;12.13;7.65;;;;;;;;;;10442495;28;20021;-84
2023/09/10 10:13:49;;;;;;;6.45;5.70;;;;;;;;;;10447314;28;20065;-88
2023/09/10 10:18:50;;;;;;;7.68;6.70;;;;;;;;;;10440217;28;20029;-85
2023/09/10 10:23:53;;;;;;;7.00;6.15;;;;;;;;;;10448455;28;20110;-86
2023/09/10 10:28:55;;;;;;;10.40;6.28;;;;;;;;;;10448135;28;20098;-84
2023/09/10 10:34:03;;;;;;;7.07;6.15;;;;;;;;;;10447453;28;20039;-81
2023/09/10 10:39:09;;;;;;;7.65;6.00;;;;;;;;;;10446741;28;20132;-84
2023/09/10 10:44:20;;;;;;;8.35;5.90;;;;;;;;;;10447292;28;20107;-87
2023/09/10 10:49:22;;;;;;;7.55;5.90;;;;;;;;;;10445263;28;20025;-83
2023/09/10 10:54:23;;;;;;;6.18;5.57;;;;;;;;;;10446073;28;20045;-83
2023/09/10 10:59:25;;;;;;;7.85;5.55;;;;;;;;;;10445100;28;20064;-87
2023/09/10 11:04:28;;;;;;;6.35;5.72;;;;;;;;;;10445940;28;20039;-84
2023/09/10 11:09:36;;;;;;;6.00;5.40;;;;;;;;;;10448380;28;20075;-83
2023/09/10 11:14:56;;;;;;;8.45;6.57;;;;;;;;;;10432967;28;20380;-85
2023/09/10 11:19:57;;;;;;;8.23;6.10;;;;;;;;;;10443127;28;20145;-84
2023/09/10 11:25:02;;;;;;;7.93;5.50;;;;;;;;;;10444239;28;20480;-85
2023/09/10 11:30:07;;;;;;;9.15;5.40;;;;;;;;;;10445184;28;20034;-85
2023/09/10 11:35:20;;;;;;;7.07;5.00;;;;;;;;;;10428601;28;20099;-84
2023/09/10 11:40:22;;;;;;;8.17;5.47;;;;;;;;;;10437933;28;20098;-86
2023/09/10 11:45:23;;;;;;;9.35;5.03;;;;;;;;;;10443991;28;20400;-84
2023/09/10 11:50:26;;;;;;;5.88;5.25;;;;;;;;;;10436984;28;20029;-85
2023/09/10 11:55:27;;;;;;;6.87;5.10;;;;;;;;;;10434657;28;20594;-86
2023/09/10 12:00:29;;;;;;;6.28;4.90;;;;;;;;;;10432505;28;20071;-86
2023/09/10 12:05:30;;;;;;;6.25;5.20;;;;;;;;;;10422144;28;20116;-82
2023/09/10 12:10:43;;;;;;;7.68;5.30;;;;;;;;;;10427467;28;20029;-82
2023/09/10 12:15:44;;;;;;;7.50;5.10;;;;;;;;;;10424731;28;20034;-84
2023/09/10 12:20:45;;;;;;;5.60;4.50;;;;;;;;;;10432312;28;20100;-83
2023/09/10 12:25:53;;;;;;;6.28;5.07;;;;;;;;;;10438898;28;20049;-81
2023/09/10 12:30:55;;;;;;;7.35;4.63;;;;;;;;;;10440773;28;20528;-83
2023/09/10 12:35:57;;;;;;;6.15;5.18;;;;;;;;;;10438249;28;20044;-83
2023/09/10 12:40:58;;;;;;;8.10;4.97;;;;;;;;;;10437589;28;20033;-84
2023/09/10 12:45:59;;;;;;;5.50;4.47;;;;;;;;;;10439227;28;20068;-83
2023/09/10 12:51:00;;;;;;;5.82;5.15;;;;;;;;;;10439597;28;20029;-83
2023/09/10 12:56:02;;;;;;;4.97;4.43;;;;;;;;;;10428481;28;20499;-84
2023/09/10 13:01:03;;;;;;;5.70;4.85;;;;;;;;;;10440549;28;20108;-81
2023/09/10 13:06:04;;;;;;;6.40;4.95;;;;;;;;;;10437219;28;20024;-82
2023/09/10 13:11:05;;;;;;;7.63;5.60;;;;;;;;;;10427424;28;20017;-81
2023/09/10 13:16:06;;;;;;;8.60;4.78;;;;;;;;;;10443165;28;20033;-83
2023/09/10 13:21:09;;;;;;;5.25;4.57;;;;;;;;;;10443905;28;20098;-81
2023/09/10 13:26:11;;;;;;;7.38;4.93;;;;;;;;;;10437364;28;20041;-83
2023/09/10 13:31:12;;;;;;;7.03;4.68;;;;;;;;;;10453260;28;20027;-85
2023/09/10 13:36:14;;;;;;;8.27;5.18;;;;;;;;;;10450906;28;20067;-83
2023/09/10 13:41:15;;;;;;;5.35;4.72;;;;;;;;;;10443781;28;20039;-82
2023/09/10 13:46:16;;;;;;;7.53;4.80;;;;;;;;;;10450993;28;20083;-82
2023/09/10 13:51:17;;;;;;;6.57;4.70;;;;;;;;;;10450234;28;20083;-82
2023/09/10 13:56:19;;;;;;;5.72;5.13;;;;;;;;;;10449354;28;20428;-81
2023/09/10 14:01:20;;;;;;;6.85;5.07;;;;;;;;;;10448811;28;20055;-81
2023/09/10 14:06:21;;;;;;;8.00;5.00;;;;;;;;;;10434364;28;20033;-84
2023/09/10 14:11:22;;;;;;;11.35;5.50;;;;;;;;;;10442084;28;20048;-83
2023/09/10 14:16:23;;;;;;;6.43;4.82;;;;;;;;;;10441645;28;20052;-85
2023/09/10 14:21:24;;;;;;;6.85;5.32;;;;;;;;;;10447735;28;20029;-84
2023/09/10 14:26:25;;;;;;;5.97;5.18;;;;;;;;;;10448222;28;20111;-84
2023/09/10 14:31:26;;;;;;;6.47;5.13;;;;;;;;;;10447190;28;20473;-83
2023/09/10 14:36:27;;;;;;;5.45;4.90;;;;;;;;;;10444415;28;20087;-82
2023/09/10 14:41:28;;;;;;;7.55;5.10;;;;;;;;;;10447770;28;20025;-83
2023/09/10 14:46:29;;;;;;;7.25;5.20;;;;;;;;;;10434648;28;20030;-83
2023/09/10 14:51:30;;;;;;;7.07;5.30;;;;;;;;;;10445803;28;20392;-85
2023/09/10 14:56:32;;;;;;;9.00;4.93;;;;;;;;;;10440622;28;20083;-82
2023/09/10 15:01:33;;;;;;;6.25;4.82;;;;;;;;;;10442394;28;20057;-83
2023/09/10 15:06:35;;;;;;;6.25;4.72;;;;;;;;;;10445641;28;20035;-83
2023/09/10 15:11:36;;;;;;;7.15;4.68;;;;;;;;;;10457904;28;20024;-84
2023/09/10 15:16:37;;;;;;;6.38;4.75;;;;;;;;;;10438830;28;20114;-82
2023/09/10 15:21:38;;;;;;;12.38;4.93;;;;;;;;;;10444821;28;20102;-83
2023/09/10 15:26:40;;;;;;;6.57;4.25;;;;;;;;;;10445139;28;20025;-83
2023/09/10 15:31:41;;;;;;;6.03;4.32;;;;;;;;;;10436474;28;20024;-85
2023/09/10 15:36:42;;;;;;;7.55;5.18;;;;;;;;;;10434588;28;20033;-83
2023/09/10 15:41:44;;;;;;;6.88;4.85;;;;;;;;;;10442503;28;20029;-84
2023/09/10 15:46:45;;;;;;;6.68;4.50;;;;;;;;;;10434698;28;20086;-84
2023/09/10 15:51:46;;;;;;;7.38;4.82;;;;;;;;;;10429495;28;20044;-84
2023/09/10 15:56:48;;;;;;;6.07;4.57;;;;;;;;;;10439292;28;20383;-85
2023/09/10 16:01:49;;;;;;;6.38;4.85;;;;;;;;;;10425514;28;20025;-88
2023/09/10 16:06:50;;;;;;;5.70;4.55;;;;;;;;;;10437983;28;20388;-85
2023/09/10 16:11:51;;;;;;;6.35;4.60;;;;;;;;;;10441066;28;20021;-87
2023/09/10 16:16:55;;;;;;;7.20;5.57;;;;;;;;;;10441144;28;20040;-87
2023/09/10 16:21:56;;;;;;;6.67;5.03;;;;;;;;;;10441849;28;20068;-83
2023/09/10 16:26:57;;;;;;;8.77;5.30;;;;;;;;;;10431237;28;20032;-84
2023/09/10 16:31:58;;;;;;;7.65;5.93;;;;;;;;;;10436646;28;20505;-83
2023/09/10 16:36:59;;;;;;;6.95;6.07;;;;;;;;;;10438373;28;20068;-84
2023/09/10 16:42:03;;;;;;;6.40;5.20;;;;;;;;;;10423746;28;20060;-84
2023/09/10 16:47:04;;;;;;;9.07;5.97;;;;;;;;;;10432844;28;20025;-79
2023/09/10 16:52:05;;;;;;;7.35;6.25;;;;;;;;;;10435435;28;20095;-83
2023/09/10 16:57:06;;;;;;;9.63;6.75;;;;;;;;;;10436193;28;20496;-83
2023/09/10 17:02:07;;;;;;;8.65;6.57;;;;;;;;;;10434843;28;20892;-85
2023/09/10 17:07:09;;;;;;;6.68;5.50;;;;;;;;;;10441600;28;20021;-79
2023/09/10 17:12:10;;;;;;;9.45;5.85;;;;;;;;;;10447770;28;20033;-84
2023/09/10 17:17:11;;;;;;;10.65;6.20;;;;;;;;;;10447940;28;20033;-84
2023/09/10 17:22:12;;;;;;;9.52;5.72;;;;;;;;;;10446284;28;20149;-83
2023/09/10 17:27:13;;;;;;;8.48;6.15;;;;;;;;;;10445619;28;20132;-82
2023/09/10 17:32:15;;;;;;;11.13;6.50;;;;;;;;;;10448932;28;20051;-83
2023/09/10 17:37:22;;;;;;;7.07;5.43;;;;;;;;;;10442694;28;20043;-83
2023/09/10 17:42:34;;;;;;;8.02;5.80;;;;;;;;;;10445589;28;20041;-82
2023/09/10 17:47:37;;;;;;;8.43;5.80;;;;;;;;;;10448011;28;20032;-87
2023/09/10 17:52:38;;;;;;;6.70;5.50;;;;;;;;;;10447091;28;20030;-85
2023/09/10 17:57:39;;;;;;;7.90;5.80;;;;;;;;;;10445804;28;20035;-84
2023/09/10 18:02:40;;;;;;;7.60;5.82;;;;;;;;;;10447568;28;20047;-82
2023/09/10 18:07:41;;;;;;;8.35;5.90;;;;;;;;;;10445681;28;20028;-86
2023/09/10 18:12:42;;;;;;;8.55;6.25;;;;;;;;;;10446624;28;20040;-83
2023/09/10 18:17:44;;;;;;;8.48;6.13;;;;;;;;;;10448749;28;20036;-84
2023/09/10 18:22:45;;;;;;;8.35;5.88;;;;;;;;;;10449566;28;20045;-86
2023/09/10 18:27:47;;;;;;;9.48;5.97;;;;;;;;;;10437372;28;20033;-81
2023/09/10 18:32:48;;;;;;;11.43;6.07;;;;;;;;;;10446926;28;20044;-86
2023/09/10 18:37:49;;;;;;;8.45;6.22;;;;;;;;;;10446808;28;20523;-84
2023/09/10 18:42:50;;;;;;;9.30;6.03;;;;;;;;;;10448711;28;20025;-83
2023/09/10 18:47:51;;;;;;;8.43;6.90;;;;;;;;;;10447343;28;20473;-84
2023/09/10 18:52:52;;;;;;;10.85;7.72;;;;;;;;;;10430646;28;20029;-83
2023/09/10 18:57:54;;;;;;;13.15;7.97;;;;;;;;;;10446742;28;20439;-83
2023/09/10 19:02:55;;;;;;;13.63;9.02;;;;;;;;;;10445555;28;20036;-82
2023/09/10 19:07:56;;;;;;;13.68;8.70;;;;;;;;;;10445647;28;20060;-82
2023/09/10 19:12:58;;;;;;;14.32;11.13;;;;;;;;;;10441223;28;20037;-82
2023/09/10 19:18:01;;;;;;;14.90;9.82;;;;;;;;;;10430088;28;20108;-82
2023/09/10 19:23:02;;;;;;;11.52;7.90;;;;;;;;;;10445330;28;20175;-82
2023/09/10 19:28:04;;;;;;;15.15;8.52;;;;;;;;;;10446592;28;20052;-83
2023/09/10 19:33:05;;;;;;;11.18;8.48;;;;;;;;;;10443116;28;20491;-82
2023/09/10 19:38:07;;;;;;;12.52;9.48;;;;;;;;;;10444989;28;20029;-84
2023/09/10 19:43:08;;;;;;;13.48;9.10;;;;;;;;;;10436082;28;20167;-83
2023/09/10 19:48:09;;;;;;;15.38;9.15;;;;;;;;;;10439272;28;20040;-84
2023/09/10 19:53:10;;;;;;;11.52;8.05;;;;;;;;;;10440723;28;20037;-83
2023/09/10 19:58:11;;;;;;;16.40;9.98;;;;;;;;;;10442748;28;20037;-85
2023/09/10 20:03:13;;;;;;;13.88;9.55;;;;;;;;;;10442333;28;20739;-84
2023/09/10 20:08:14;;;;;;;10.90;8.48;;;;;;;;;;10437457;28;20025;-83
2023/09/10 20:13:15;;;;;;;13.70;9.63;;;;;;;;;;10438656;28;20606;-83
2023/09/10 20:18:16;;;;;;;9.77;7.95;;;;;;;;;;10435093;28;20028;-82
2023/09/10 20:23:17;;;;;;;16.00;9.95;;;;;;;;;;10440476;28;20489;-83
2023/09/10 20:28:18;;;;;;;16.27;11.20;;;;;;;;;;10439338;28;20471;-81
2023/09/10 20:33:22;;;;;;;15.13;10.65;;;;;;;;;;10436941;28;20047;-82
2023/09/10 20:38:23;;;;;;;14.65;9.85;;;;;;;;;;10443822;28;20033;-82
2023/09/10 20:43:25;;;;;;;17.60;11.38;;;;;;;;;;10442382;28;20102;-84
2023/09/10 20:48:26;;;;;;;13.45;10.20;;;;;;;;;;10440998;28;20033;-82
2023/09/10 20:53:27;;;;;;;14.07;10.77;;;;;;;;;;10434721;28;20374;-81
2023/09/10 20:58:28;;;;;;;14.23;11.13;;;;;;;;;;10442651;28;20496;-81
2023/09/10 21:03:30;;;;;;;18.67;12.38;;;;;;;;;;10440815;28;20392;-82
2023/09/10 21:08:31;;;;;;;16.55;12.00;;;;;;;;;;10440944;28;20037;-81
2023/09/10 21:13:32;;;;;;;16.70;12.43;;;;;;;;;;10443194;28;20560;-82
2023/09/10 21:18:33;;;;;;;16.35;11.65;;;;;;;;;;10442242;28;20119;-82
2023/09/10 21:23:34;;;;;;;17.10;10.98;;;;;;;;;;10442546;28;20384;-82
2023/09/10 21:28:36;;;;;;;13.93;10.93;;;;;;;;;;10443435;28;20485;-82
2023/09/10 21:33:37;;;;;;;14.20;11.23;;;;;;;;;;10441766;28;20033;-81
2023/09/10 21:38:38;;;;;;;12.90;10.73;;;;;;;;;;10442469;28;20103;-82
2023/09/10 21:43:39;;;;;;;17.42;10.85;;;;;;;;;;10441740;28;20071;-84
2023/09/10 21:48:40;;;;;;;18.98;11.32;;;;;;;;;;10446379;28;20055;-82
2023/09/10 21:53:42;;;;;;;15.90;11.65;;;;;;;;;;10450139;28;20033;-81
2023/09/10 21:58:44;;;;;;;12.75;9.75;;;;;;;;;;10447758;28;20539;-83
2023/09/10 22:03:45;;;;;;;14.27;11.85;;;;;;;;;;10445931;28;20731;-81
2023/09/10 22:08:46;;;;;;;15.43;11.80;;;;;;;;;;10448415;28;20025;-82
2023/09/10 22:13:47;;;;;;;14.07;11.15;;;;;;;;;;10448231;28;20037;-81
2023/09/10 22:18:48;;;;;;;17.13;13.10;;;;;;;;;;10448291;28;20045;-82
2023/09/10 22:23:49;;;;;;;18.77;13.30;;;;;;;;;;10448248;28;20443;-83
2023/09/10 22:28:51;;;;;;;16.80;12.55;;;;;;;;;;10447454;28;20037;-82
2023/09/10 22:33:52;;;;;;;19.73;15.93;;;;;;;;;;10447156;28;20496;-81
2023/09/10 22:38:55;;;;;;;16.10;10.68;;;;;;;;;;10447525;28;20040;-81
2023/09/10 22:43:56;;;;;;;17.27;13.05;;;;;;;;;;10446770;28;20037;-83
2023/09/10 22:48:57;;;;;;;16.95;11.52;;;;;;;;;;10446295;28;20035;-84
2023/09/10 22:53:58;;;;;;;14.70;10.80;;;;;;;;;;10446497;28;20090;-82
2023/09/10 22:58:59;;;;;;;17.55;12.57;;;;;;;;;;10446253;28;20357;-83
2023/09/10 23:04:00;;;;;;;15.35;12.25;;;;;;;;;;10443873;28;20029;-81
2023/09/10 23:09:01;;;;;;;19.83;13.40;;;;;;;;;;10444162;28;20100;-82
2023/09/10 23:14:02;;;;;;;19.90;13.65;;;;;;;;;;10446689;28;20044;-82
2023/09/10 23:19:03;;;;;;;18.05;12.43;;;;;;;;;;10445603;28;20071;-82
2023/09/10 23:24:04;;;;;;;18.02;12.95;;;;;;;;;;10445131;28;20106;-83
2023/09/10 23:29:05;;;;;;;14.77;12.02;;;;;;;;;;10445566;28;20036;-84
2023/09/10 23:34:06;;;;;;;21.17;14.63;;;;;;;;;;10443510;28;20040;-82
2023/09/10 23:39:07;;;;;;;13.85;10.80;;;;;;;;;;10445179;28;20033;-83
2023/09/10 23:44:08;;;;;;;17.80;12.50;;;;;;;;;;10445480;28;20041;-84
2023/09/10 23:49:09;;;;;;;18.63;13.65;;;;;;;;;;10443892;28;20029;-83
2023/09/10 23:54:10;;;;;;;15.55;11.95;;;;;;;;;;10444518;28;20041;-82
2023/09/10 23:59:11;;;;;;;28.33;18.52;;;;;;;;;;10443629;28;20083;-83
